Time;durP1;ratioP1;P1;durP2;ratioP2;P2;SDS_P1;SDS_P2;PMS_P1;PMS_P2;Temp;Humidity;BMP_temperature;BMP_pressure;BME280_temperature;BME280_humidity;BME280_pressure;Samples;Min_cycle;Max_cycle;Signal;HPM_P1;HPM_P2
2023/09/12 00:01:33;;;;;;;10.25;6.65;;;461.50;2380.80;;;;;;5051439;28;20025;-56
2023/09/12 00:03:59;;;;;;;12.48;7.53;;;461.50;2380.80;;;;;;5051375;28;20056;-56
2023/09/12 00:06:25;;;;;;;13.43;6.25;;;461.40;2380.80;;;;;;5037829;28;20025;-56
2023/09/12 00:08:54;;;;;;;10.05;6.60;;;461.40;2380.80;;;;;;5050967;28;20033;-56
2023/09/12 00:11:19;;;;;;;16.23;6.55;;;461.40;2380.80;;;;;;5050678;28;20045;-57
2023/09/12 00:13:45;;;;;;;10.02;6.30;;;461.40;2380.80;;;;;;5050457;28;20068;-57
2023/09/12 00:16:11;;;;;;;10.35;7.47;;;461.40;2380.80;;;;;;5050983;28;20383;-56
2023/09/12 00:18:40;;;;;;;12.95;7.22;;;461.40;2380.80;;;;;;5050694;28;20049;-57
2023/09/12 00:21:05;;;;;;;9.30;6.68;;;461.20;2380.80;;;;;;5050747;28;20025;-58
2023/09/12 00:23:31;;;;;;;13.85;7.38;;;461.30;2380.80;;;;;;5050718;28;20082;-57
2023/09/12 00:25:57;;;;;;;15.43;6.93;;;461.30;2380.80;;;;;;5050468;28;20051;-56
2023/09/12 00:28:23;;;;;;;11.20;7.78;;;461.30;2380.80;;;;;;5050252;28;20060;-59
2023/09/12 00:30:49;;;;;;;9.65;6.05;;;461.20;2380.80;;;;;;5050295;28;20075;-57
2023/09/12 00:33:15;;;;;;;14.05;7.07;;;461.10;2380.80;;;;;;5049850;28;20075;-58
2023/09/12 00:35:41;;;;;;;10.43;6.82;;;461.10;2380.80;;;;;;5050548;28;20040;-56
2023/09/12 00:38:08;;;;;;;9.70;6.68;;;461.00;2380.80;;;;;;5049967;28;20112;-58
2023/09/12 00:40:34;;;;;;;9.30;6.10;;;460.90;2380.80;;;;;;5050468;28;20029;-57
2023/09/12 00:42:59;;;;;;;9.88;7.03;;;461.00;2380.80;;;;;;5049783;28;20025;-56
2023/09/12 00:45:25;;;;;;;19.60;7.97;;;460.80;2380.80;;;;;;5050047;28;20372;-56
2023/09/12 00:47:52;;;;;;;14.15;6.10;;;436.00;2355.20;;;;;;5049774;28;20483;-56
2023/09/12 00:50:23;;;;;;;11.85;6.40;;;436.00;2355.20;;;;;;5050020;28;20021;-57
2023/09/12 00:52:49;;;;;;;11.73;7.32;;;435.80;2355.20;;;;;;5049919;28;20052;-57
2023/09/12 00:55:17;;;;;;;9.57;6.00;;;435.80;2355.20;;;;;;5049768;28;20032;-57
2023/09/12 00:57:43;;;;;;;10.27;6.53;;;435.90;2355.20;;;;;;5049811;28;20096;-58
2023/09/12 01:00:12;;;;;;;12.95;6.70;;;435.80;2355.20;;;;;;5050102;28;20218;-55
2023/09/12 01:02:47;;;;;;;9.35;5.88;;;435.70;2355.20;;;;;;5049983;28;20111;-56
2023/09/12 01:05:14;;;;;;;14.48;6.88;;;435.70;2355.20;;;;;;5049732;28;20074;-57
2023/09/12 01:07:42;;;;;;;9.43;6.40;;;435.70;2355.20;;;;;;5050111;28;20029;-57
2023/09/12 01:10:10;;;;;;;13.07;6.20;;;435.70;2355.20;;;;;;5049828;28;20029;-56
2023/09/12 01:12:36;;;;;;;10.10;5.68;;;435.50;2355.20;;;;;;5049161;28;20071;-56
2023/09/12 01:15:05;;;;;;;16.98;7.07;;;435.60;2355.20;;;;;;5049737;28;20029;-56
2023/09/12 01:17:31;;;;;;;10.50;6.65;;;435.40;2355.20;;;;;;5049639;28;20368;-57
2023/09/12 01:19:58;;;;;;;14.93;6.40;;;435.30;2355.20;;;;;;5049174;28;20095;-56
2023/09/12 01:22:42;;;;;;;11.02;6.75;;;435.40;2355.20;;;;;;5049331;28;20040;-56
2023/09/12 01:25:19;;;;;;;8.20;5.68;;;435.40;2355.20;;;;;;5048876;28;20033;-57
2023/09/12 01:27:48;;;;;;;8.60;6.45;;;435.30;2355.20;;;;;;5049263;28;20025;-56
2023/09/12 01:30:18;;;;;;;13.93;7.70;;;435.30;2355.20;;;;;;5049001;28;20033;-57
2023/09/12 01:32:44;;;;;;;9.45;6.20;;;435.30;2355.20;;;;;;5049668;28;20103;-56
2023/09/12 01:35:10;;;;;;;9.70;6.20;;;435.30;2355.20;;;;;;5049314;28;20025;-57
2023/09/12 01:37:35;;;;;;;14.57;6.63;;;435.30;2355.20;;;;;;5048531;28;20051;-58
2023/09/12 01:40:03;;;;;;;9.20;6.72;;;435.30;2355.20;;;;;;5048985;28;20048;-57
2023/09/12 01:42:37;;;;;;;14.50;6.63;;;435.30;2355.20;;;;;;5048793;28;20092;-56
2023/09/12 01:45:05;;;;;;;9.48;6.15;;;435.30;2355.20;;;;;;5048893;28;20120;-56
2023/09/12 01:47:33;;;;;;;11.73;6.38;;;435.30;2355.20;;;;;;5049095;28;20562;-57
2023/09/12 01:50:00;;;;;;;11.60;6.10;;;410.50;2355.20;;;;;;5049048;28;20052;-59
2023/09/12 01:52:28;;;;;;;8.18;5.93;;;410.50;2355.20;;;;;;5048851;28;20100;-57
2023/09/12 01:54:55;;;;;;;14.07;6.40;;;435.20;2355.20;;;;;;5048857;28;20047;-56
2023/09/12 04:59:55;;;;;;;10.82;6.30;;;384.30;2329.60;;;;;;5105459;27;20381;-56
2023/09/12 05:02:21;;;;;;;11.60;5.82;;;435.20;2355.20;;;;;;5105947;28;20077;-56
2023/09/12 05:04:47;;;;;;;12.82;6.53;;;435.30;2355.20;;;;;;5104998;28;20431;-57
2023/09/12 05:07:12;;;;;;;12.82;6.35;;;435.50;2355.20;;;;;;5104576;28;20028;-57
2023/09/12 05:09:38;;;;;;;13.65;6.57;;;435.60;2355.20;;;;;;5097800;28;20119;-56
2023/09/12 05:12:04;;;;;;;16.08;6.82;;;435.80;2355.20;;;;;;5096908;28;20046;-57
2023/09/12 05:14:30;;;;;;;11.95;5.65;;;435.80;2355.20;;;;;;5101800;28;20012;-57
2023/09/12 05:16:56;;;;;;;15.15;6.38;;;436.00;2355.20;;;;;;5085307;28;20029;-55
2023/09/12 05:19:23;;;;;;;14.63;6.78;;;460.80;2380.80;;;;;;5090006;28;20466;-57
2023/09/12 05:21:48;;;;;;;17.52;6.63;;;460.90;2380.80;;;;;;5104909;28;20032;-56
2023/09/12 05:24:14;;;;;;;16.48;7.10;;;461.00;2380.80;;;;;;5104863;28;20052;-56
2023/09/12 05:26:40;;;;;;;10.80;6.72;;;461.10;2380.80;;;;;;5105721;28;20024;-56
2023/09/12 05:29:05;;;;;;;10.23;6.03;;;461.20;2380.80;;;;;;5105058;28;20036;-56
2023/09/12 06:36:32;;;;;;;27.30;14.82;;;794.30;1510.40;;;;;;5093380;27;20390;-58
2023/09/12 06:38:59;;;;;;;26.45;17.48;;;921.60;1331.20;;;;;;5087031;28;20028;-58
2023/09/12 06:41:25;;;;;;;19.15;13.25;;;896.10;1356.80;;;;;;5098645;28;20038;-57
2023/09/12 06:43:51;;;;;;;14.82;10.63;;;896.60;1305.60;;;;;;5105432;28;20020;-57
2023/09/12 06:46:17;;;;;;;16.40;11.15;;;972.90;1254.40;;;;;;5106100;28;20097;-57
2023/09/12 06:48:44;;;;;;;21.88;10.80;;;998.70;1203.20;;;;;;5105912;28;20103;-57
2023/09/12 06:51:10;;;;;;;16.27;9.77;;;999.20;1177.60;;;;;;5106338;28;20075;-59
2023/09/12 06:53:38;;;;;;;14.98;11.23;;;1024.90;1126.40;;;;;;5105290;28;20602;-57
2023/09/12 06:56:05;;;;;;;15.43;10.63;;;1024.30;1152.00;;;;;;5105971;28;20412;-58
2023/09/12 06:58:33;;;;;;;12.82;10.00;;;1049.60;1126.40;;;;;;5105989;28;20409;-58
2023/09/12 07:01:03;;;;;;;12.85;10.50;;;1024.20;1126.40;;;;;;5097273;28;20031;-58
2023/09/12 07:03:28;;;;;;;15.63;10.23;;;1049.80;1100.80;;;;;;5105380;28;20031;-59
2023/09/12 07:05:54;;;;;;;14.93;11.40;;;1024.50;1100.80;;;;;;5087325;28;20032;-58
2023/09/12 07:08:20;;;;;;;12.48;11.10;;;999.20;1126.40;;;;;;5096517;28;20153;-58
2023/09/12 07:10:46;;;;;;;18.05;10.80;;;998.80;1152.00;;;;;;5105535;28;20091;-59
2023/09/12 07:13:11;;;;;;;15.15;10.70;;;1024.40;1100.80;;;;;;5098013;28;20027;-58
2023/09/12 07:15:38;;;;;;;12.95;11.18;;;1049.60;1126.40;;;;;;5092224;28;20024;-58
2023/09/12 07:18:06;;;;;;;17.75;12.00;;;1075.20;1075.20;;;;;;5089805;28;20031;-58
2023/09/12 07:20:35;;;;;;;17.33;13.20;;;1049.80;1100.80;;;;;;5088722;28;20509;-58
2023/09/12 07:23:01;;;;;;;16.55;11.52;;;1100.80;1049.60;;;;;;5091726;28;20484;-58
2023/09/12 07:25:26;;;;;;;15.20;11.05;;;1024.70;1075.20;;;;;;5092514;28;20056;-59
2023/09/12 07:27:52;;;;;;;17.73;12.07;;;999.30;1126.40;;;;;;5098285;28;20020;-59
2023/09/12 07:30:19;;;;;;;14.48;12.93;;;1024.20;1126.40;;;;;;5106071;28;20073;-59
2023/09/12 07:32:46;;;;;;;17.50;12.95;;;1050.20;1100.80;;;;;;5087144;28;20034;-57
2023/09/12 07:35:11;;;;;;;14.45;13.00;;;1101.50;1024.00;;;;;;5104955;28;20493;-58
2023/09/12 07:37:37;;;;;;;18.48;13.85;;;1126.90;1024.00;;;;;;5091767;28;20069;-59
2023/09/12 07:40:09;;;;;;;14.00;12.05;;;1126.80;1024.00;;;;;;5086090;28;20097;-60
2023/09/12 07:42:35;;;;;;;;;;;1152.10;1024.00;;;;;;5091758;28;20050;-59
2023/09/12 07:45:03;;;;;;;14.48;12.90;;;1127.30;998.40;;;;;;5075534;28;19963;-58
2023/09/12 07:47:28;;;;;;;16.95;12.68;;;1127.10;1024.00;;;;;;5083442;28;20032;-59
2023/09/12 07:49:54;;;;;;;16.88;13.80;;;1126.70;1024.00;;;;;;5082734;28;20029;-60
2023/09/12 07:52:20;;;;;;;15.38;13.70;;;1076.10;1024.00;;;;;;5085605;28;20055;-59
2023/09/12 07:54:46;;;;;;;15.30;13.35;;;1024.90;1049.60;;;;;;5091758;28;20027;-59
2023/09/12 07:57:12;;;;;;;17.23;13.60;;;999.00;1100.80;;;;;;5091432;28;20370;-59
2023/09/12 07:59:37;;;;;;;15.63;13.18;;;973.70;1100.80;;;;;;5091325;28;20111;-58
2023/09/12 08:02:04;;;;;;;19.10;14.82;;;1024.70;1075.20;;;;;;5090261;28;20028;-58
2023/09/12 08:04:30;;;;;;;16.25;14.70;;;1049.80;1100.80;;;;;;5090703;28;20678;-59
2023/09/12 08:06:56;;;;;;;21.65;14.38;;;1049.70;1075.20;;;;;;5090436;28;20107;-60
2023/09/12 08:09:21;;;;;;;18.27;15.10;;;1024.00;1126.40;;;;;;5090745;28;20145;-59
2023/09/12 08:11:47;;;;;;;15.73;12.90;;;998.90;1152.00;;;;;;5090544;28;20024;-59
2023/09/12 08:14:13;;;;;;;17.50;14.20;;;1024.40;1126.40;;;;;;5090378;28;20025;-58
2023/09/12 08:16:38;;;;;;;15.88;12.70;;;998.70;1152.00;;;;;;5090413;28;20542;-58
2023/09/12 08:19:04;;;;;;;19.95;14.80;;;1050.10;1100.80;;;;;;5090227;28;20035;-60
2023/09/12 08:21:30;;;;;;;16.92;14.52;;;1049.70;1100.80;;;;;;5090615;28;20488;-57
2023/09/12 08:23:56;;;;;;;51.60;24.35;;;1024.90;1075.20;;;;;;5090572;28;20115;-59
2023/09/12 08:26:21;;;;;;;22.23;13.70;;;1024.10;1100.80;;;;;;5090367;28;20109;-58
2023/09/12 08:28:47;;;;;;;19.80;14.70;;;998.80;1152.00;;;;;;5090220;28;20476;-58
2023/09/12 08:31:13;;;;;;;18.45;16.20;;;998.90;1126.40;;;;;;5088641;28;20019;-60
2023/09/12 08:33:39;;;;;;;18.95;16.85;;;1024.90;1075.20;;;;;;5077162;28;20039;-58
2023/09/12 08:36:04;;;;;;;24.85;18.52;;;998.90;1126.40;;;;;;5089819;28;20401;-60
2023/09/12 08:38:30;;;;;;;31.65;20.48;;;1024.30;1075.20;;;;;;5090317;28;20020;-57
2023/09/12 08:40:57;;;;;;;28.73;19.42;;;998.90;1126.40;;;;;;5089972;28;20449;-59
2023/09/12 08:43:22;;;;;;;19.45;15.35;;;1024.90;1075.20;;;;;;5089780;28;20427;-58
2023/09/12 08:45:48;;;;;;;19.30;15.10;;;998.80;1126.40;;;;;;5090121;28;20021;-62
2023/09/12 08:48:16;;;;;;;16.23;11.82;;;999.10;1126.40;;;;;;5088430;28;20085;-60
2023/09/12 08:50:42;;;;;;;21.02;12.45;;;998.80;1075.20;;;;;;5089822;28;20024;-61
2023/09/12 08:53:07;;;;;;;22.27;11.20;;;972.90;1152.00;;;;;;5090074;28;20032;-65
2023/09/12 08:55:37;;;;;;;19.13;9.35;;;922.30;1203.20;;;;;;5089499;28;20165;-61
2023/09/12 08:58:04;;;;;;;19.00;10.35;;;896.50;1228.80;;;;;;5089474;28;20021;-58
2023/09/12 09:00:30;;;;;;;17.83;9.02;;;870.90;1254.40;;;;;;5090019;28;20024;-59
2023/09/12 09:02:56;;;;;;;22.63;8.60;;;870.40;1280.00;;;;;;5088847;28;20028;-58
2023/09/12 09:05:24;;;;;;;15.20;8.48;;;845.70;1280.00;;;;;;5089576;28;20043;-59
2023/09/12 09:07:51;;;;;;;25.38;9.80;;;845.20;1305.60;;;;;;5089397;28;20474;-61
2023/09/12 09:10:18;;;;;;;24.08;8.95;;;845.40;1305.60;;;;;;5089687;28;20382;-61
2023/09/12 09:12:46;;;;;;;15.38;8.52;;;845.40;1331.20;;;;;;5089506;28;20107;-63
2023/09/12 09:15:29;;;;;;;16.25;8.02;;;845.20;1331.20;;;;;;5088246;28;20040;-66
2023/09/12 09:18:00;;;;;;;22.00;8.57;;;845.20;1305.60;;;;;;5087749;28;20012;-66
2023/09/12 09:20:30;;;;;;;21.38;8.77;;;844.90;1331.20;;;;;;5087710;28;20481;-62
2023/09/12 09:22:59;;;;;;;17.30;7.78;;;820.00;1331.20;;;;;;5087731;28;20086;-66
2023/09/12 09:25:25;;;;;;;23.60;9.07;;;820.10;1305.60;;;;;;5087710;28;20080;-65
2023/09/12 09:27:51;;;;;;;13.20;7.25;;;845.00;1356.80;;;;;;5084642;28;20028;-62
2023/09/12 09:30:18;;;;;;;14.85;8.57;;;844.80;1331.20;;;;;;5087236;28;20024;-60
2023/09/12 09:32:45;;;;;;;22.20;9.20;;;820.10;1280.00;;;;;;5087659;28;20051;-62
2023/09/12 09:35:11;;;;;;;15.57;7.68;;;820.10;1331.20;;;;;;5087279;28;20040;-63
2023/09/12 09:37:38;;;;;;;19.92;8.35;;;819.30;1331.20;;;;;;5069284;28;20442;-59
2023/09/12 09:40:07;;;;;;;14.98;7.75;;;819.20;1331.20;;;;;;5064313;28;20432;-59
2023/09/12 09:42:33;;;;;;;18.77;7.93;;;819.40;1331.20;;;;;;5078473;28;20024;-59
2023/09/12 09:44:58;;;;;;;24.13;9.10;;;819.80;1331.20;;;;;;5087362;28;20497;-63
2023/09/12 09:47:24;;;;;;;18.48;9.32;;;820.10;1331.20;;;;;;5087425;28;20026;-62
2023/09/12 09:49:59;;;;;;;17.70;8.35;;;820.10;1280.00;;;;;;5087611;28;20480;-64
2023/09/12 09:52:28;;;;;;;20.80;7.35;;;820.10;1280.00;;;;;;5087330;28;20136;-62
2023/09/12 09:54:53;;;;;;;14.27;7.75;;;844.90;1305.60;;;;;;5086813;28;20024;-66
2023/09/12 09:57:19;;;;;;;17.33;8.10;;;820.00;1254.40;;;;;;5087644;28;20546;-61
2023/09/12 09:59:52;;;;;;;18.90;8.60;;;819.40;1280.00;;;;;;5086333;28;20024;-62
2023/09/12 10:02:22;;;;;;;17.05;7.85;;;819.80;1305.60;;;;;;5085186;28;20119;-67
2023/09/12 10:04:50;;;;;;;14.73;7.90;;;819.80;1280.00;;;;;;5053745;28;20037;-59
2023/09/12 10:07:16;;;;;;;13.70;8.20;;;819.40;1280.00;;;;;;5081938;28;20024;-59
2023/09/12 10:09:43;;;;;;;17.98;8.63;;;794.40;1305.60;;;;;;5081962;28;20394;-59
2023/09/12 10:12:10;;;;;;;15.40;7.75;;;794.50;1331.20;;;;;;5082220;28;20024;-61
2023/09/12 10:14:38;;;;;;;21.70;7.63;;;794.40;1305.60;;;;;;5078045;28;20051;-59
2023/09/12 10:17:04;;;;;;;17.48;7.30;;;819.30;1280.00;;;;;;5086927;28;20237;-62
2023/09/12 10:19:38;;;;;;;19.30;8.52;;;819.30;1280.00;;;;;;5076891;28;20512;-62
2023/09/12 10:22:23;;;;;;;21.70;6.93;;;819.20;1280.00;;;;;;5081111;28;20024;-62
2023/09/12 10:24:51;;;;;;;23.83;7.97;;;819.50;1254.40;;;;;;5086912;28;20013;-65
2023/09/12 10:27:20;;;;;;;13.75;6.60;;;819.60;1228.80;;;;;;5068778;28;20438;-61
2023/09/12 10:29:47;;;;;;;20.42;7.10;;;819.40;1152.00;;;;;;5087118;28;20024;-62
2023/09/12 10:32:14;;;;;;;16.30;8.40;;;819.30;1203.20;;;;;;5086538;28;20470;-67
2023/09/12 10:34:44;;;;;;;15.52;7.82;;;794.50;1254.40;;;;;;5086022;28;20066;-65
2023/09/12 10:37:15;;;;;;;14.18;7.20;;;819.60;1254.40;;;;;;5086886;28;20497;-62
2023/09/12 10:39:43;;;;;;;18.98;7.38;;;819.70;1280.00;;;;;;5086868;28;20608;-60
2023/09/12 10:42:12;;;;;;;17.58;7.50;;;819.70;1228.80;;;;;;5086534;28;20021;-64
2023/09/12 10:44:38;;;;;;;18.60;7.72;;;819.70;1254.40;;;;;;5086468;28;20035;-66
2023/09/12 10:47:05;;;;;;;16.05;7.53;;;819.60;1254.40;;;;;;5082134;28;20021;-59
2023/09/12 10:49:31;;;;;;;22.73;7.30;;;819.80;1280.00;;;;;;5086519;28;20052;-60
2023/09/12 10:51:57;;;;;;;29.08;7.03;;;819.90;1203.20;;;;;;5086369;28;20016;-59
2023/09/12 10:54:39;;;;;;;19.65;8.20;;;819.60;1152.00;;;;;;5086258;28;20044;-61
2023/09/12 10:57:13;;;;;;;13.80;7.68;;;819.70;1177.60;;;;;;5086252;28;20031;-61
2023/09/12 11:00:04;;;;;;;19.33;7.18;;;819.70;1152.00;;;;;;5086696;28;20150;-61
2023/09/12 11:02:34;;;;;;;36.35;9.30;;;819.60;1126.40;;;;;;5075533;28;20663;-67
2023/09/12 11:05:04;;;;;;;24.08;8.20;;;819.60;1152.00;;;;;;5086455;28;20549;-61
2023/09/12 11:07:50;;;;;;;21.48;7.80;;;819.60;1152.00;;;;;;5068448;28;20425;-60
2023/09/12 11:10:16;;;;;;;18.65;7.43;;;819.60;1152.00;;;;;;5085877;28;20086;-68
2023/09/12 11:12:43;;;;;;;24.67;7.45;;;819.60;1152.00;;;;;;5089396;28;20042;-61
2023/09/12 11:15:10;;;;;;;23.40;8.88;;;819.60;1152.00;;;;;;5084880;28;20067;-64
2023/09/12 11:17:39;;;;;;;26.08;8.73;;;819.70;1177.60;;;;;;5074130;28;20105;-63
2023/09/12 11:20:10;;;;;;;22.48;8.70;;;819.50;1177.60;;;;;;5083752;28;20025;-61
2023/09/12 11:22:39;;;;;;;34.63;8.77;;;819.60;1177.60;;;;;;5070778;28;20062;-64
2023/09/12 11:25:15;;;;;;;19.42;7.85;;;819.60;1152.00;;;;;;5086754;28;20107;-62
2023/09/12 11:40:53;;;;;;;26.42;10.38;;;819.60;1152.00;;;;;;5093015;27;20406;-64
2023/09/12 11:43:27;;;;;;;25.80;9.98;;;819.90;1126.40;;;;;;5098943;28;20113;-64
2023/09/12 11:45:55;;;;;;;26.77;10.50;;;820.00;1126.40;;;;;;5101592;28;20541;-61
2023/09/12 11:48:20;;;;;;;26.20;9.95;;;820.00;1152.00;;;;;;5105006;28;20031;-64
2023/09/12 11:50:54;;;;;;;17.77;9.55;;;844.80;1177.60;;;;;;5081134;28;20674;-62
2023/09/12 11:53:25;;;;;;;29.77;11.05;;;820.10;1152.00;;;;;;5093000;28;20024;-62
2023/09/12 11:55:56;;;;;;;28.88;10.07;;;820.00;1152.00;;;;;;5091979;28;20707;-60
2023/09/12 11:58:22;;;;;;;27.65;10.32;;;819.80;1126.40;;;;;;5089740;28;20036;-61
2023/09/12 12:00:53;;;;;;;19.95;9.10;;;819.90;1100.80;;;;;;5095579;28;20031;-63
2023/09/12 12:03:23;;;;;;;24.73;10.57;;;820.00;1126.40;;;;;;5101977;28;20024;-63
2023/09/12 12:05:49;;;;;;;23.63;10.07;;;819.90;1126.40;;;;;;5096917;28;20063;-63
2023/09/12 12:08:17;;;;;;;26.40;9.73;;;820.10;1126.40;;;;;;5100246;28;20027;-64
2023/09/12 12:10:43;;;;;;;24.33;10.65;;;820.10;1126.40;;;;;;5095347;28;20072;-62
2023/09/12 12:13:16;;;;;;;24.83;10.15;;;820.10;1100.80;;;;;;5085363;28;20021;-63
2023/09/12 12:15:42;;;;;;;26.27;10.70;;;844.90;1126.40;;;;;;5093380;28;20024;-62
2023/09/12 12:18:08;;;;;;;26.05;10.65;;;820.10;1100.80;;;;;;5100437;28;20529;-61
2023/09/12 12:20:34;;;;;;;26.05;10.13;;;844.90;1152.00;;;;;;5083953;28;20024;-62
2023/09/12 12:23:00;;;;;;;25.90;10.45;;;845.00;1177.60;;;;;;5083505;28;20081;-62
2023/09/12 12:25:25;;;;;;;30.85;11.45;;;844.90;1126.40;;;;;;5076844;28;20025;-61
2023/09/12 12:27:51;;;;;;;24.13;11.75;;;820.10;1100.80;;;;;;5101810;28;20036;-62
2023/09/12 12:30:18;;;;;;;25.35;11.77;;;820.10;1126.40;;;;;;5093823;28;20535;-62
2023/09/12 12:32:52;;;;;;;29.30;13.10;;;820.10;1126.40;;;;;;5096178;28;20031;-61
2023/09/12 12:35:22;;;;;;;23.20;10.68;;;844.90;1152.00;;;;;;5083860;28;20505;-62
2023/09/12 12:37:50;;;;;;;25.48;10.70;;;844.90;1126.40;;;;;;5093105;28;20039;-61
2023/09/12 12:40:18;;;;;;;24.95;10.13;;;844.90;1126.40;;;;;;5090950;28;20062;-61
2023/09/12 12:42:48;;;;;;;26.90;13.15;;;845.10;1152.00;;;;;;5069290;28;20146;-62
2023/09/12 12:45:16;;;;;;;25.00;11.43;;;845.00;1152.00;;;;;;5080472;28;20055;-61
2023/09/12 12:47:42;;;;;;;32.10;11.95;;;845.00;1152.00;;;;;;5075390;28;20575;-63
2023/09/12 12:50:14;;;;;;;23.58;10.82;;;845.10;1152.00;;;;;;5084111;28;20510;-62
2023/09/12 12:52:41;;;;;;;24.55;11.27;;;845.20;1177.60;;;;;;5080462;28;20025;-63
2023/09/12 12:55:14;;;;;;;17.35;8.57;;;845.20;1203.20;;;;;;5068608;28;20084;-63
2023/09/12 12:57:42;;;;;;;22.30;8.82;;;845.20;1177.60;;;;;;5083090;28;20099;-63
2023/09/12 13:00:08;;;;;;;19.05;8.60;;;845.00;1152.00;;;;;;5091316;28;20055;-61
2023/09/12 13:02:43;;;;;;;17.75;8.18;;;845.00;1152.00;;;;;;5091691;28;20020;-63
2023/09/12 13:05:30;;;;;;;21.55;9.63;;;845.10;1177.60;;;;;;5066303;28;20385;-61
2023/09/12 13:07:56;;;;;;;23.80;7.78;;;845.20;1152.00;;;;;;5090904;28;20012;-62
2023/09/12 13:10:23;;;;;;;20.67;9.00;;;845.20;1152.00;;;;;;5091361;28;20486;-63
2023/09/12 13:12:49;;;;;;;17.75;9.30;;;845.20;1177.60;;;;;;5091595;28;20031;-61
2023/09/12 13:15:16;;;;;;;21.67;9.02;;;845.10;1177.60;;;;;;5091442;28;20020;-61
2023/09/12 13:17:43;;;;;;;21.50;9.23;;;845.00;1177.60;;;;;;5082356;28;20428;-61
2023/09/12 13:20:09;;;;;;;23.23;8.63;;;844.90;1152.00;;;;;;5069637;28;20025;-63
2023/09/12 13:22:36;;;;;;;22.35;8.90;;;845.00;1152.00;;;;;;5089193;28;20026;-62
2023/09/12 13:25:03;;;;;;;30.65;9.88;;;844.90;1152.00;;;;;;5085416;28;20021;-61
2023/09/12 13:27:29;;;;;;;20.23;8.35;;;845.10;1177.60;;;;;;5077464;28;20016;-61
2023/09/12 13:29:55;;;;;;;25.13;8.18;;;845.10;1177.60;;;;;;5091233;28;20487;-62
2023/09/12 13:32:20;;;;;;;28.55;8.95;;;845.10;1177.60;;;;;;5091033;28;20097;-61
2023/09/12 13:34:46;;;;;;;19.98;8.70;;;845.20;1177.60;;;;;;5091189;28;20028;-62
2023/09/12 13:37:12;;;;;;;20.05;8.70;;;845.20;1177.60;;;;;;5089248;28;20051;-63
2023/09/12 13:39:38;;;;;;;27.38;10.02;;;845.00;1177.60;;;;;;5090663;28;20060;-63
2023/09/12 13:42:08;;;;;;;23.15;8.00;;;845.10;1177.60;;;;;;5090609;28;20027;-62
2023/09/12 13:44:33;;;;;;;19.92;8.60;;;845.00;1177.60;;;;;;5090626;28;20034;-61
2023/09/12 13:46:59;;;;;;;24.95;8.30;;;845.00;1177.60;;;;;;5088988;28;20119;-62
2023/09/12 13:49:25;;;;;;;17.15;7.30;;;844.90;1177.60;;;;;;5066025;28;20044;-64
2023/09/12 13:51:50;;;;;;;20.55;7.93;;;845.00;1177.60;;;;;;5082081;28;20019;-63
2023/09/12 13:54:16;;;;;;;19.52;8.15;;;844.90;1177.60;;;;;;5090542;28;20032;-62
2023/09/12 13:56:42;;;;;;;20.30;9.90;;;845.00;1152.00;;;;;;5090533;28;20020;-61
2023/09/12 13:59:08;;;;;;;24.15;8.75;;;844.90;1203.20;;;;;;5090859;28;20109;-61
2023/09/12 14:01:34;;;;;;;23.02;9.45;;;845.10;1203.20;;;;;;5090576;28;20021;-62
2023/09/12 14:04:00;;;;;;;23.50;8.52;;;845.10;1177.60;;;;;;5090368;28;20423;-61
2023/09/12 14:06:25;;;;;;;20.90;8.63;;;844.90;1177.60;;;;;;5090309;28;20540;-62
2023/09/12 14:08:52;;;;;;;21.02;8.40;;;844.90;1177.60;;;;;;5090494;28;20035;-61
2023/09/12 14:11:18;;;;;;;17.05;7.47;;;844.90;1177.60;;;;;;5090368;28;20028;-62
2023/09/12 14:13:45;;;;;;;15.82;7.03;;;844.90;1203.20;;;;;;5090260;28;20028;-63
2023/09/12 14:16:10;;;;;;;16.45;7.43;;;844.90;1203.20;;;;;;5090263;28;20027;-61
2023/09/12 14:18:37;;;;;;;18.75;7.03;;;844.90;1177.60;;;;;;5084993;28;20031;-60
2023/09/12 14:21:03;;;;;;;22.77;8.50;;;820.10;1152.00;;;;;;5061392;28;20292;-63
2023/09/12 14:23:29;;;;;;;20.92;7.97;;;844.90;1203.20;;;;;;5074024;28;20490;-62
2023/09/12 14:25:54;;;;;;;25.60;7.97;;;820.10;1177.60;;;;;;5089372;28;20032;-63
2023/09/12 14:28:20;;;;;;;20.70;7.95;;;820.10;1177.60;;;;;;5086029;28;20058;-62
2023/09/12 14:30:48;;;;;;;23.88;8.60;;;820.10;1177.60;;;;;;5089630;28;20480;-62
2023/09/12 14:33:13;;;;;;;20.30;7.82;;;820.10;1177.60;;;;;;5087625;28;20107;-62
2023/09/12 14:35:41;;;;;;;26.70;9.30;;;844.90;1228.80;;;;;;5088535;28;20116;-62
2023/09/12 14:38:07;;;;;;;22.10;9.27;;;844.90;1228.80;;;;;;5088002;28;20131;-63
2023/09/12 14:40:33;;;;;;;20.98;8.90;;;844.90;1228.80;;;;;;5085275;28;20059;-64
2023/09/12 14:42:58;;;;;;;18.23;8.70;;;820.10;1228.80;;;;;;5083484;28;20343;-64
2023/09/12 14:45:25;;;;;;;17.02;6.30;;;820.10;1203.20;;;;;;5081819;28;20370;-63
2023/09/12 14:47:51;;;;;;;20.08;8.20;;;820.10;1203.20;;;;;;5088104;28;20016;-62
2023/09/12 14:50:16;;;;;;;29.95;8.70;;;820.00;1203.20;;;;;;5072191;28;20044;-62
2023/09/12 14:52:43;;;;;;;20.15;8.18;;;820.00;1203.20;;;;;;5078094;28;20024;-62
2023/09/12 14:55:09;;;;;;;21.50;7.70;;;820.00;1203.20;;;;;;5087431;28;20039;-63
2023/09/12 14:57:35;;;;;;;20.42;7.57;;;819.90;1228.80;;;;;;5085926;28;20036;-62
2023/09/12 15:00:01;;;;;;;26.42;8.25;;;819.80;1228.80;;;;;;5087936;28;20024;-65
2023/09/12 15:02:33;;;;;;;22.27;7.97;;;820.00;1228.80;;;;;;5086923;28;20028;-62
2023/09/12 15:05:01;;;;;;;17.70;7.90;;;819.80;1203.20;;;;;;5087288;28;20021;-63
2023/09/12 15:07:29;;;;;;;20.30;8.00;;;819.80;1203.20;;;;;;5067937;28;20052;-62
2023/09/12 15:09:55;;;;;;;20.35;7.43;;;819.80;1203.20;;;;;;5087386;28;20119;-63
2023/09/12 15:12:21;;;;;;;18.33;7.25;;;819.80;1203.20;;;;;;5087131;28;20107;-62
2023/09/12 15:14:46;;;;;;;19.95;8.25;;;819.70;1203.20;;;;;;5086044;28;20038;-64
2023/09/12 15:17:12;;;;;;;19.48;7.30;;;819.60;1203.20;;;;;;5087257;28;20431;-62
2023/09/12 15:19:38;;;;;;;22.23;8.88;;;819.60;1203.20;;;;;;5071477;28;20029;-64
2023/09/12 15:22:04;;;;;;;20.70;8.63;;;819.50;1254.40;;;;;;5064594;28;20017;-62
2023/09/12 15:24:30;;;;;;;22.35;7.82;;;819.50;1228.80;;;;;;5066508;28;20535;-62
2023/09/12 15:26:56;;;;;;;23.95;7.53;;;819.40;1254.40;;;;;;5075704;28;20039;-63
2023/09/12 15:29:22;;;;;;;14.27;8.07;;;819.30;1254.40;;;;;;5074570;28;20072;-62
2023/09/12 15:31:47;;;;;;;17.90;7.78;;;819.30;1254.40;;;;;;5081185;28;20471;-64
2023/09/12 15:34:13;;;;;;;18.38;8.60;;;819.30;1254.40;;;;;;5079690;28;20028;-63
2023/09/12 15:36:45;;;;;;;17.52;8.73;;;794.50;1280.00;;;;;;5080566;28;20060;-62
2023/09/12 15:39:11;;;;;;;19.20;9.20;;;794.50;1280.00;;;;;;5080417;28;20044;-62
2023/09/12 15:41:37;;;;;;;24.35;10.75;;;794.50;1280.00;;;;;;5083418;28;20042;-62
2023/09/12 15:44:03;;;;;;;23.65;9.32;;;794.30;1280.00;;;;;;5078961;28;20025;-65
2023/09/12 15:46:32;;;;;;;24.30;9.80;;;794.40;1280.00;;;;;;5081800;28;20020;-61
2023/09/12 15:48:58;;;;;;;17.27;9.57;;;794.20;1280.00;;;;;;5077820;28;20037;-64
2023/09/12 15:51:24;;;;;;;19.42;9.57;;;794.30;1280.00;;;;;;5077665;28;20028;-62
2023/09/12 15:53:50;;;;;;;23.40;10.15;;;794.20;1305.60;;;;;;5086960;28;20020;-64
2023/09/12 15:56:16;;;;;;;23.55;10.00;;;794.20;1305.60;;;;;;5074645;28;20481;-64
2023/09/12 15:58:46;;;;;;;24.63;11.48;;;794.00;1305.60;;;;;;5078623;28;20076;-62
2023/09/12 16:01:12;;;;;;;21.20;10.40;;;794.00;1305.60;;;;;;5086837;28;20082;-63
2023/09/12 16:03:38;;;;;;;22.52;10.93;;;794.00;1305.60;;;;;;5086354;28;20730;-62
2023/09/12 16:06:03;;;;;;;20.90;10.13;;;793.80;1331.20;;;;;;5087138;28;20028;-63
2023/09/12 16:08:29;;;;;;;19.92;9.68;;;793.70;1331.20;;;;;;5086853;28;20676;-63
2023/09/12 16:10:55;;;;;;;28.55;9.63;;;793.70;1331.20;;;;;;5086834;28;20473;-61
2023/09/12 16:13:21;;;;;;;26.25;9.48;;;793.60;1356.80;;;;;;5087350;28;20020;-60
2023/09/12 16:15:49;;;;;;;19.42;10.13;;;768.90;1356.80;;;;;;5088006;28;20429;-61
2023/09/12 16:18:15;;;;;;;20.73;7.97;;;768.80;1382.40;;;;;;5089989;28;20047;-61
2023/09/12 16:20:42;;;;;;;19.88;8.68;;;768.70;1356.80;;;;;;5090790;28;20074;-61
2023/09/12 16:23:08;;;;;;;17.95;9.32;;;768.60;1356.80;;;;;;5090574;28;20020;-61
2023/09/12 16:25:34;;;;;;;36.60;11.20;;;768.50;1382.40;;;;;;5087522;28;20043;-61
2023/09/12 16:27:59;;;;;;;22.38;9.63;;;768.30;1408.00;;;;;;5065625;28;20027;-60